Time;durP1;ratioP1;P1;durP2;ratioP2;P2;SDS_P1;SDS_P2;PMS_P1;PMS_P2;Temp;Humidity;BMP_temperature;BMP_pressure;BME280_temperature;BME280_humidity;BME280_pressure;Samples;Min_cycle;Max_cycle;Signal;HPM_P1;HPM_P2
2022/04/14 00:01:15;;;;;;;3.93;3.33;;;;;;;11.90;100.00;100311.84;4950132;29;20203;-54
2022/04/14 00:03:40;;;;;;;3.83;3.17;;;;;;;11.87;100.00;100309.28;4948778;28;20215;-55
2022/04/14 00:06:06;;;;;;;4.40;3.13;;;;;;;11.82;100.00;100310.25;4942928;28;20199;-54
2022/04/14 00:08:31;;;;;;;5.80;3.47;;;;;;;11.80;100.00;100314.63;4944835;29;21124;-54
2022/04/14 00:10:57;;;;;;;7.27;3.77;;;;;;;11.76;100.00;100310.34;4947263;29;20253;-53
2022/04/14 00:13:22;;;;;;;4.90;3.80;;;;;;;11.72;100.00;100312.97;4947391;29;20221;-54
2022/04/14 00:15:47;;;;;;;4.20;3.10;;;;;;;11.67;100.00;100312.16;4948298;28;20186;-55
2022/04/14 00:18:13;;;;;;;4.80;3.20;;;;;;;11.65;100.00;100311.31;4947295;29;20816;-56
2022/04/14 00:20:38;;;;;;;5.43;3.50;;;;;;;11.63;100.00;100317.41;4946942;29;20191;-56
2022/04/14 00:23:04;;;;;;;5.73;3.60;;;;;;;11.63;100.00;100307.91;4948175;29;20214;-56
2022/04/14 00:25:29;;;;;;;3.93;3.53;;;;;;;11.62;100.00;100308.78;4946983;29;20187;-54
2022/04/14 00:27:54;;;;;;;3.77;3.37;;;;;;;11.61;100.00;100308.78;4948103;29;20196;-55
2022/04/14 00:30:20;;;;;;;3.50;3.20;;;;;;;11.61;100.00;100303.59;4947195;29;20199;-54
2022/04/14 00:32:45;;;;;;;4.50;3.37;;;;;;;11.58;100.00;100302.75;4947965;29;20203;-54
2022/04/14 00:35:11;;;;;;;5.27;3.27;;;;;;;11.57;100.00;100300.22;4949425;29;20547;-54
2022/04/14 00:37:36;;;;;;;5.57;3.50;;;;;;;11.56;100.00;100304.53;4945495;29;20619;-53
2022/04/14 00:40:01;;;;;;;4.13;3.40;;;;;;;11.55;100.00;100309.72;4950147;29;20199;-56
2022/04/14 00:42:27;;;;;;;4.20;3.40;;;;;;;11.52;100.00;100304.56;4948774;29;20211;-54
2022/04/14 00:44:52;;;;;;;3.47;3.03;;;;;;;11.49;100.00;100315.00;4952596;28;20277;-55
2022/04/14 00:47:18;;;;;;;4.43;3.50;;;;;;;11.46;100.00;100326.25;4946661;29;20203;-56
2022/04/14 00:49:44;;;;;;;5.33;3.20;;;;;;;11.44;100.00;100323.69;4950273;29;20189;-56
2022/04/14 00:52:09;;;;;;;5.13;3.30;;;;;;;11.44;100.00;100323.69;4952475;28;20208;-56
2022/04/14 00:54:35;;;;;;;4.23;3.13;;;;;;;11.41;100.00;100322.88;4947683;29;20241;-56
2022/04/14 00:57:02;;;;;;;4.33;3.50;;;;;;;11.38;100.00;100331.53;4942350;28;20200;-55
2022/04/14 00:59:29;;;;;;;4.37;3.30;;;;;;;11.36;100.00;100333.28;4952412;28;20310;-55
2022/04/14 01:01:55;;;;;;;6.13;3.23;;;;;;;11.36;100.00;100333.28;4958283;28;20244;-55
2022/04/14 01:04:21;;;;;;;6.10;3.73;;;;;;;11.33;100.00;100337.63;4962650;28;20219;-55
2022/04/14 01:06:47;;;;;;;5.40;3.93;;;;;;;11.29;100.00;100344.59;4957249;28;20195;-55
2022/04/14 01:09:19;;;;;;;7.27;3.60;;;;;;;11.25;100.00;100338.59;4956793;28;20192;-54
2022/04/14 01:11:47;;;;;;;4.27;3.50;;;;;;;11.18;100.00;100336.09;4952170;29;20194;-55
2022/04/14 01:14:24;;;;;;;5.50;3.70;;;;;;;11.18;100.00;100339.53;4947000;29;20212;-54
2022/04/14 01:16:49;;;;;;;3.97;3.50;;;;;;;11.18;100.00;100343.84;4957549;29;20219;-55
2022/04/14 01:19:14;;;;;;;5.83;3.63;;;;;;;11.18;100.00;100342.13;4964445;28;20245;-55
2022/04/14 01:21:44;;;;;;;5.70;3.60;;;;;;;11.21;100.00;100351.56;4964065;28;20194;-55
2022/04/14 01:24:09;;;;;;;5.13;3.40;;;;;;;11.21;100.00;100347.28;4950942;28;20297;-53
2022/04/14 01:26:37;;;;;;;3.90;3.30;;;;;;;11.24;100.00;100357.59;4941875;29;20537;-55
2022/04/14 01:29:03;;;;;;;3.50;3.20;;;;;;;11.27;100.00;100359.28;4950602;29;20202;-53
2022/04/14 01:31:29;;;;;;;4.10;3.20;;;;;;;11.29;100.00;100360.13;4946220;29;20369;-54
2022/04/14 01:33:54;;;;;;;4.80;3.47;;;;;;;11.31;100.00;100358.41;4947609;28;20286;-55
2022/04/14 01:36:20;;;;;;;4.83;3.20;;;;;;;11.35;100.00;100359.22;4950575;29;20230;-56
2022/04/14 01:38:45;;;;;;;4.10;3.50;;;;;;;11.38;100.00;100369.53;4948586;29;20187;-55
2022/04/14 01:41:10;;;;;;;5.47;3.73;;;;;;;11.41;100.00;100366.94;4952361;29;20195;-55
2022/04/14 01:43:36;;;;;;;4.73;3.67;;;;;;;11.44;100.00;100372.06;4950683;28;20683;-56
2022/04/14 01:46:03;;;;;;;6.83;3.60;;;;;;;11.46;100.00;100378.06;4950099;29;22127;-55
2022/04/14 01:48:28;;;;;;;5.37;3.53;;;;;;;11.46;100.00;100375.50;4950305;29;20680;-57
2022/04/14 01:50:54;;;;;;;4.43;3.33;;;;;;;11.48;100.00;100383.25;4951672;29;20191;-54
2022/04/14 01:53:19;;;;;;;6.03;3.50;;;;;;;11.47;100.00;100386.72;4952084;29;20210;-54
2022/04/14 01:55:44;;;;;;;4.67;3.23;;;;;;;11.46;100.00;100380.66;4950175;28;20330;-55
2022/04/14 01:58:10;;;;;;;4.00;3.37;;;;;;;11.46;100.00;100385.84;4951837;29;20223;-55
2022/04/14 02:00:35;;;;;;;4.27;3.13;;;;;;;11.44;100.00;100383.28;4951497;29;20187;-56
2022/04/14 02:03:01;;;;;;;4.97;2.80;;;;;;;11.47;100.00;100382.38;4951089;29;20225;-56
2022/04/14 02:05:26;;;;;;;5.00;3.63;;;;;;;11.47;100.00;100384.13;4949581;29;20199;-55
2022/04/14 02:07:51;;;;;;;4.77;3.40;;;;;;;11.47;100.00;100384.97;4951299;29;20203;-56
2022/04/14 02:10:17;;;;;;;4.33;3.20;;;;;;;11.49;100.00;100382.38;4952909;28;20191;-56
2022/04/14 02:12:45;;;;;;;5.20;3.30;;;;;;;11.50;100.00;100384.06;4950407;29;20265;-54
2022/04/14 02:15:10;;;;;;;4.13;3.23;;;;;;;11.51;100.00;100383.22;4948884;29;20186;-56
2022/04/14 02:17:36;;;;;;;6.20;3.97;;;;;;;11.51;100.00;100380.63;4948555;29;20282;-54
2022/04/14 02:20:01;;;;;;;5.50;3.83;;;;;;;11.51;100.00;100385.78;4951466;28;20186;-55
2022/04/14 02:22:26;;;;;;;5.57;4.13;;;;;;;11.49;100.00;100387.56;4945616;29;20559;-55
2022/04/14 02:24:52;;;;;;;4.77;3.30;;;;;;;11.47;100.00;100397.09;4949973;29;20215;-55
2022/04/14 02:27:17;;;;;;;6.37;4.03;;;;;;;11.43;100.00;100399.72;4949509;28;20195;-54
2022/04/14 02:29:43;;;;;;;4.33;3.50;;;;;;;11.40;100.00;100399.75;4943280;29;20611;-56
2022/04/14 02:32:09;;;;;;;5.70;3.87;;;;;;;11.39;100.00;100399.78;4950068;28;20244;-53
2022/04/14 02:34:34;;;;;;;3.83;3.30;;;;;;;11.39;100.00;100402.34;4949164;29;20236;-55
2022/04/14 02:37:00;;;;;;;5.13;3.13;;;;;;;11.39;100.00;100405.78;4948663;29;20195;-54
2022/04/14 02:39:25;;;;;;;5.77;3.13;;;;;;;11.40;100.00;100406.66;4949774;29;20269;-55
2022/04/14 02:41:50;;;;;;;8.37;3.80;;;;;;;11.39;100.00;100418.75;4949374;29;20242;-56
2022/04/14 02:44:16;;;;;;;10.00;4.50;;;;;;;11.38;100.00;100418.78;4951360;29;20262;-55
2022/04/14 02:46:41;;;;;;;12.50;4.47;;;;;;;11.35;100.00;100414.47;4949758;29;20234;-55
2022/04/14 02:49:06;;;;;;;6.63;3.53;;;;;;;11.29;100.00;100409.38;4951108;29;20213;-53
2022/04/14 02:51:32;;;;;;;8.57;4.30;;;;;;;11.26;100.00;100411.97;4948278;28;20575;-55
2022/04/14 02:53:57;;;;;;;7.37;4.10;;;;;;;11.20;100.00;100412.03;4947113;29;20190;-54
2022/04/14 02:56:22;;;;;;;6.53;3.70;;;;;;;11.16;100.00;100418.13;4931864;29;20277;-55
2022/04/14 02:58:48;;;;;;;4.93;3.50;;;;;;;11.12;100.00;100414.69;4950952;29;20226;-55
2022/04/14 03:01:13;;;;;;;4.87;3.70;;;;;;;11.08;100.00;100415.63;4948228;28;20199;-55
2022/04/14 03:03:40;;;;;;;5.47;3.90;;;;;;;11.04;100.00;100412.16;4947002;28;20214;-55
2022/04/14 03:06:05;;;;;;;5.20;4.37;;;;;;;11.00;100.00;100415.69;4948259;29;20198;-55
2022/04/14 03:08:31;;;;;;;5.73;3.30;;;;;;;10.96;100.00;100412.25;4942840;29;20185;-53
2022/04/14 03:10:56;;;;;;;4.87;3.40;;;;;;;10.93;100.00;100412.28;4949048;29;20199;-54
2022/04/14 03:13:22;;;;;;;4.60;3.60;;;;;;;10.92;100.00;100415.75;4946330;29;20277;-55
2022/04/14 03:15:49;;;;;;;6.13;3.77;;;;;;;10.89;100.00;100415.75;4951197;29;20606;-55
2022/04/14 03:18:15;;;;;;;5.67;3.60;;;;;;;10.88;100.00;100411.44;4946739;29;20274;-55
2022/04/14 03:20:40;;;;;;;5.43;3.90;;;;;;;10.86;100.00;100414.94;4948086;29;20734;-56
2022/04/14 03:23:06;;;;;;;5.50;4.23;;;;;;;10.82;100.00;100414.06;4944065;28;20229;-56
2022/04/14 03:25:31;;;;;;;5.30;3.97;;;;;;;10.77;100.00;100418.44;4950223;28;20552;-55
2022/04/14 03:27:57;;;;;;;6.83;3.87;;;;;;;10.72;100.00;100415.91;4947100;29;20199;-55
2022/04/14 03:30:22;;;;;;;6.43;4.10;;;;;;;10.70;100.00;100419.34;4948261;28;20195;-56
2022/04/14 03:32:48;;;;;;;4.70;4.03;;;;;;;10.65;100.00;100415.09;4947279;28;20261;-54
2022/04/14 03:35:14;;;;;;;6.90;3.80;;;;;;;10.61;100.00;100418.56;4949626;28;20218;-56
2022/04/14 03:37:40;;;;;;;5.20;4.23;;;;;;;10.57;100.00;100416.84;4945086;29;20715;-55
2022/04/14 03:40:07;;;;;;;5.60;4.30;;;;;;;10.52;100.00;100426.38;4949430;28;20253;-56
2022/04/14 03:42:33;;;;;;;5.33;4.67;;;;;;;10.48;100.00;100424.69;4946353;29;20214;-55
2022/04/14 03:44:59;;;;;;;6.43;4.57;;;;;;;10.42;100.00;100424.72;4955107;28;20194;-55
2022/04/14 03:47:27;;;;;;;6.97;4.20;;;;;;;10.37;100.00;100422.97;4944206;29;20245;-54
2022/04/14 03:49:53;;;;;;;6.13;4.03;;;;;;;10.34;100.00;100433.38;4947652;29;20190;-56
2022/04/14 03:52:18;;;;;;;8.20;4.70;;;;;;;10.34;100.00;100440.25;4947870;28;20280;-53
2022/04/14 03:54:44;;;;;;;8.83;5.00;;;;;;;10.32;100.00;100440.28;4946697;28;20212;-54
2022/04/14 03:57:10;;;;;;;6.23;4.37;;;;;;;10.28;100.00;100445.47;4943130;29;20187;-54
2022/04/14 03:59:36;;;;;;;5.30;4.50;;;;;;;10.25;100.00;100451.50;4947269;29;20283;-57
2022/04/14 04:02:01;;;;;;;7.27;4.53;;;;;;;10.22;100.00;100443.75;4950006;28;20622;-55
2022/04/14 04:04:26;;;;;;;5.37;3.83;;;;;;;10.19;100.00;100444.66;4955739;28;20227;-52
2022/04/14 04:06:52;;;;;;;8.63;4.43;;;;;;;10.15;100.00;100449.84;4954165;28;20201;-54
2022/04/14 04:09:17;;;;;;;5.97;3.83;;;;;;;10.11;100.00;100456.75;4951813;29;20187;-57
2022/04/14 04:11:42;;;;;;;7.20;4.30;;;;;;;10.08;100.00;100451.59;4950074;29;20218;-56
2022/04/14 04:14:08;;;;;;;4.97;3.90;;;;;;;10.06;100.00;100459.34;4951961;29;20552;-55
2022/04/14 04:16:33;;;;;;;7.70;4.80;;;;;;;10.06;100.00;100456.75;4948028;28;20543;-56
2022/04/14 04:18:59;;;;;;;7.50;4.33;;;;;;;10.05;100.00;100460.25;4943613;29;20573;-55
2022/04/14 04:21:26;;;;;;;6.47;4.57;;;;;;;10.01;100.00;100462.81;4944561;29;20230;-55
2022/04/14 04:23:52;;;;;;;8.63;4.37;;;;;;;10.00;100.00;100459.38;4942457;29;20218;-55
2022/04/14 04:26:17;;;;;;;8.50;4.00;;;;;;;9.99;100.00;100461.97;4947778;28;20886;-56
2022/04/14 04:28:43;;;;;;;7.93;4.30;;;;;;;9.98;100.00;100470.59;4942034;29;20282;-56
2022/04/14 04:31:08;;;;;;;6.30;4.43;;;;;;;9.97;100.00;100467.16;4951681;28;20214;-58
2022/04/14 04:33:34;;;;;;;8.30;4.10;;;;;;;9.97;100.00;100472.31;4944361;29;20239;-55
2022/04/14 04:35:59;;;;;;;5.87;3.73;;;;;;;9.96;100.00;100475.75;4942684;28;20218;-55
2022/04/14 04:38:24;;;;;;;8.47;4.23;;;;;;;9.98;100.00;100470.59;4941284;29;20302;-55
2022/04/14 04:40:50;;;;;;;7.80;4.00;;;;;;;10.00;100.00;100479.19;4948222;28;20194;-55
2022/04/14 04:43:15;;;;;;;5.47;4.03;;;;;;;9.99;100.00;100474.88;4947335;28;20279;-54
2022/04/14 04:45:42;;;;;;;7.67;4.40;;;;;;;9.99;100.00;100480.06;4951318;28;20187;-54
2022/04/14 04:48:07;;;;;;;7.00;3.93;;;;;;;9.98;100.00;100476.63;4946939;29;20198;-55
2022/04/14 04:50:33;;;;;;;7.90;5.07;;;;;;;10.04;100.00;100483.50;4944177;29;20183;-55
2022/04/14 04:52:58;;;;;;;8.47;5.03;;;;;;;10.07;100.00;100489.50;4942575;28;20202;-55
2022/04/14 04:55:24;;;;;;;7.83;5.03;;;;;;;10.12;100.00;100496.41;4945003;29;20644;-54
2022/04/14 04:57:49;;;;;;;7.30;4.60;;;;;;;10.17;100.00;100497.25;4946938;28;20678;-56
2022/04/14 05:00:15;;;;;;;6.37;4.47;;;;;;;10.22;100.00;100487.72;4942596;29;20214;-55
2022/04/14 05:02:41;;;;;;;10.47;4.73;;;;;;;10.26;100.00;100494.63;4947359;28;20660;-55
2022/04/14 05:05:07;;;;;;;8.60;4.33;;;;;;;10.32;100.00;100493.72;4943294;29;20652;-55
2022/04/14 05:07:32;;;;;;;6.67;4.30;;;;;;;10.40;100.00;100492.00;4940832;28;20255;-55
2022/04/14 05:09:58;;;;;;;7.97;4.47;;;;;;;10.51;100.00;100499.72;4945118;29;20202;-55
2022/04/14 05:12:23;;;;;;;7.90;5.07;;;;;;;10.63;100.00;100497.06;4941663;28;20245;-54
2022/04/14 05:14:48;;;;;;;4.93;4.37;;;;;;;10.76;100.00;100494.38;4943986;28;20190;-56
2022/04/14 05:17:14;;;;;;;5.83;4.07;;;;;;;10.87;100.00;100502.09;4941849;29;20203;-56
2022/04/14 05:19:39;;;;;;;9.13;4.40;;;;;;;10.94;100.00;100508.94;4943911;29;20958;-55
2022/04/14 05:22:04;;;;;;;7.83;4.10;;;;;;;11.04;100.00;100500.22;4941828;28;20218;-55
2022/04/14 05:24:30;;;;;;;4.73;4.00;;;;;;;11.21;100.00;100507.88;4944121;29;20222;-56
2022/04/14 05:26:56;;;;;;;4.60;4.20;;;;;;;11.39;100.00;100511.19;4942799;29;20195;-54
2022/04/14 05:29:21;;;;;;;5.87;4.30;;;;;;;11.58;100.00;100517.06;4940481;29;20612;-54
2022/04/14 05:31:47;;;;;;;4.87;4.20;;;;;;;11.70;100.00;100518.69;4944115;29;20217;-56
2022/04/14 05:34:12;;;;;;;7.47;4.33;;;;;;;11.83;100.00;100514.22;4946457;28;20187;-55
2022/04/14 05:36:37;;;;;;;4.63;3.93;;;;;;;11.95;100.00;100521.00;4942984;28;20214;-55
2022/04/14 05:39:03;;;;;;;6.13;4.53;;;;;;;12.12;100.00;100513.94;4948741;28;20643;-54
2022/04/14 05:41:28;;;;;;;4.77;4.23;;;;;;;12.38;100.00;100517.09;4942320;29;20229;-56
2022/04/14 05:43:54;;;;;;;7.03;4.57;;;;;;;12.70;100.00;100521.84;4943377;28;20242;-55
2022/04/14 05:46:19;;;;;;;5.23;4.00;;;;;;;12.99;100.00;100520.56;4938668;29;20279;-56
2022/04/14 05:48:44;;;;;;;4.20;3.67;;;;;;;13.23;100.00;100521.06;4938424;29;20223;-55
2022/04/14 05:51:10;;;;;;;5.53;3.60;;;;;;;13.43;100.00;100525.09;4943953;28;20202;-56
2022/04/14 05:53:36;;;;;;;5.87;4.33;;;;;;;13.64;100.00;100527.31;4944635;28;20208;-55
2022/04/14 05:56:01;;;;;;;6.77;4.70;;;;;;;13.59;100.00;100530.91;4946818;28;20198;-53
2022/04/14 05:58:27;;;;;;;9.63;4.60;;;;;;;13.61;100.00;100531.72;4946899;29;20189;-55
2022/04/14 06:00:52;;;;;;;6.20;4.60;;;;;;;13.84;100.00;100531.31;4948574;29;20567;-55
2022/04/14 06:03:18;;;;;;;5.57;4.83;;;;;;;13.87;100.00;100534.72;4946589;28;20228;-55
2022/04/14 06:05:43;;;;;;;7.67;4.93;;;;;;;13.81;100.00;100528.78;4946128;29;20272;-53
2022/04/14 06:08:09;;;;;;;6.73;4.03;;;;;;;13.87;100.00;100537.31;4946055;28;20210;-56
2022/04/14 06:10:35;;;;;;;11.40;8.43;;;;;;;13.89;100.00;100541.63;4946782;29;20232;-54
2022/04/14 06:13:01;;;;;;;8.27;7.03;;;;;;;13.85;100.00;100540.81;4943688;28;20687;-56
2022/04/14 06:15:26;;;;;;;9.07;6.10;;;;;;;13.83;100.00;100542.59;4945379;29;20222;-55
2022/04/14 06:17:52;;;;;;;6.47;5.67;;;;;;;13.87;100.00;100541.66;4953200;28;20194;-56
2022/04/14 06:20:17;;;;;;;9.77;5.50;;;;;;;13.79;100.00;100546.16;4947964;29;20194;-55
2022/04/14 06:22:44;;;;;;;7.37;4.87;;;;;;;13.76;100.00;100546.19;4947944;29;20308;-55
2022/04/14 06:25:16;;;;;;;7.13;4.50;;;;;;;13.78;100.00;100542.66;4946983;28;20614;-55
2022/04/14 06:27:43;;;;;;;5.77;4.27;;;;;;;13.86;100.00;100546.00;4939283;28;20190;-56
2022/04/14 06:30:10;;;;;;;5.90;4.77;;;;;;;14.00;100.00;100548.31;4955110;28;20783;-55
2022/04/14 06:32:39;;;;;;;7.87;6.73;;;;;;;14.11;100.00;100553.34;4950382;28;20757;-55
2022/04/14 06:35:06;;;;;;;9.23;7.30;;;;;;;14.22;100.00;100553.13;4951024;28;21496;-55
2022/04/14 06:37:35;;;;;;;19.27;14.13;;;;;;;14.36;100.00;100557.19;4956739;28;20191;-55
2022/04/14 06:40:00;;;;;;;13.97;11.40;;;;;;;14.50;100.00;100549.97;4946743;28;20209;-54
2022/04/14 06:42:26;;;;;;;19.80;13.73;;;;;;;14.63;100.00;100553.16;4944585;29;20322;-54
2022/04/14 06:44:53;;;;;;;16.97;11.90;;;;;;;14.74;100.00;100559.03;4948598;28;20218;-56
2022/04/14 06:47:18;;;;;;;17.53;11.07;;;;;;;14.89;100.00;100564.78;4944658;28;20195;-55
2022/04/14 06:49:44;;;;;;;15.13;10.93;;;;;;;14.99;100.00;100557.63;4945635;29;20253;-55
2022/04/14 06:52:09;;;;;;;17.03;10.87;;;;;;;15.08;100.00;100555.66;4944492;29;20218;-57
2022/04/14 06:54:34;;;;;;;13.90;8.93;;;;;;;15.21;100.00;100556.22;4945523;29;20218;-54
2022/04/14 06:57:00;;;;;;;13.40;7.50;;;;;;;15.36;100.00;100557.59;4947101;28;20281;-54
2022/04/14 06:59:27;;;;;;;9.77;6.90;;;;;;;15.52;100.00;100557.22;4945865;28;20226;-56
2022/04/14 07:01:53;;;;;;;9.70;6.23;;;;;;;15.71;100.00;100562.81;4949718;29;20217;-56
2022/04/14 07:04:18;;;;;;;7.03;5.63;;;;;;;15.89;100.00;100561.50;4950880;28;20214;-55
2022/04/14 07:06:43;;;;;;;7.90;5.90;;;;;;;16.02;100.00;100562.03;4944974;28;20653;-55
2022/04/14 07:09:09;;;;;;;9.50;5.50;;;;;;;16.14;100.00;100560.84;4941796;28;20601;-56
2022/04/14 07:11:34;;;;;;;6.67;5.03;;;;;;;16.40;100.00;100565.34;4946073;28;20222;-56
2022/04/14 07:13:59;;;;;;;9.80;5.37;;;;;;;16.75;100.00;100562.59;4948557;28;20200;-55
2022/04/14 07:16:25;;;;;;;8.53;5.53;;;;;;;17.14;99.44;100550.97;4946327;28;20659;-55
2022/04/14 07:18:50;;;;;;;5.60;4.80;;;;;;;17.67;97.74;100563.19;4946657;28;20967;-56
2022/04/14 07:21:16;;;;;;;5.37;4.67;;;;;;;18.13;96.09;100563.34;4944574;28;20192;-56
2022/04/14 07:23:41;;;;;;;5.07;4.53;;;;;;;18.53;94.71;100561.84;4948630;29;20304;-54
2022/04/14 07:26:07;;;;;;;6.37;5.00;;;;;;;18.86;93.19;100566.72;4948375;28;20948;-55
2022/04/14 07:28:32;;;;;;;6.80;5.07;;;;;;;19.13;92.28;100552.59;4943851;28;20205;-54
2022/04/14 07:30:57;;;;;;;6.30;5.00;;;;;;;19.41;91.00;100567.22;4950149;28;20255;-54
2022/04/14 07:33:23;;;;;;;8.03;6.67;;;;;;;19.59;89.91;100570.81;4949703;29;20225;-54
2022/04/14 07:35:50;;;;;;;8.77;6.97;;;;;;;19.75;89.00;100569.25;4947583;29;20197;-54
2022/04/14 07:38:16;;;;;;;7.03;5.97;;;;;;;19.97;88.46;100571.00;4949982;28;20230;-55
2022/04/14 07:40:41;;;;;;;7.83;6.17;;;;;;;20.12;88.02;100577.34;4946767;28;20281;-55
2022/04/14 07:43:07;;;;;;;10.23;9.23;;;;;;;20.01;87.91;100567.34;4944860;28;20226;-56
2022/04/14 07:45:32;;;;;;;8.80;8.00;;;;;;;19.82;87.46;100561.97;4942785;28;20221;-54
2022/04/14 07:47:57;;;;;;;8.43;7.57;;;;;;;19.71;87.92;100554.59;4953623;28;20189;-55
2022/04/14 07:50:24;;;;;;;10.33;8.33;;;;;;;19.70;87.58;100565.13;4943180;28;20195;-55
2022/04/14 07:52:55;;;;;;;9.17;8.37;;;;;;;19.82;87.22;100566.38;4941965;29;20242;-56
2022/04/14 07:55:22;;;;;;;12.63;10.23;;;;;;;19.86;86.33;100570.59;4950522;28;20197;-57
2022/04/14 07:57:49;;;;;;;14.57;13.23;;;;;;;19.86;85.23;100565.34;4953018;28;20197;-56
2022/04/14 08:00:15;;;;;;;14.87;13.30;;;;;;;19.77;85.03;100563.97;4950549;28;20199;-56
2022/04/14 08:02:47;;;;;;;16.73;15.00;;;;;;;19.82;84.56;100571.63;4953688;28;20297;-56
2022/04/14 08:05:13;;;;;;;17.27;14.67;;;;;;;19.82;84.75;100571.63;4942189;28;20245;-55
2022/04/14 08:07:38;;;;;;;18.10;14.47;;;;;;;19.80;85.36;100579.59;4944334;28;21042;-57
2022/04/14 08:10:04;;;;;;;16.43;14.80;;;;;;;19.82;85.37;100580.34;4939644;28;20199;-55
2022/04/14 08:12:29;;;;;;;17.50;15.70;;;;;;;19.80;84.84;100577.81;4950854;28;20241;-56
2022/04/14 08:14:55;;;;;;;16.10;14.50;;;;;;;19.51;85.61;100573.81;4952421;28;20186;-56
2022/04/14 08:17:20;;;;;;;15.13;13.57;;;;;;;19.66;85.95;100577.53;4952087;28;20894;-55
2022/04/14 08:19:45;;;;;;;16.60;12.90;;;;;;;19.73;85.42;100581.63;4937467;28;20197;-55
2022/04/14 08:22:11;;;;;;;18.83;14.37;;;;;;;19.60;85.54;100577.78;4941711;28;20241;-55
2022/04/14 08:24:36;;;;;;;16.50;14.13;;;;;;;19.77;85.02;100579.72;4946175;28;20223;-54
2022/04/14 08:27:01;;;;;;;13.67;12.23;;;;;;;19.92;85.44;100572.97;4941435;28;20199;-56
2022/04/14 08:29:27;;;;;;;13.73;12.33;;;;;;;20.11;84.63;100578.28;4936826;28;20202;-55
2022/04/14 08:31:53;;;;;;;15.13;13.80;;;;;;;20.15;84.27;100577.22;4941534;28;20297;-55
2022/04/14 08:34:18;;;;;;;21.23;19.13;;;;;;;20.34;83.57;100571.13;4942783;28;20201;-55
2022/04/14 08:36:44;;;;;;;17.27;15.40;;;;;;;20.36;83.16;100577.19;4946323;28;20663;-56
2022/04/14 08:39:10;;;;;;;14.77;13.47;;;;;;;20.41;83.63;100576.03;4948108;28;20691;-56
2022/04/14 08:41:39;;;;;;;15.03;13.57;;;;;;;20.73;83.24;100583.34;4947732;28;20273;-57
2022/04/14 08:44:10;;;;;;;16.83;15.10;;;;;;;20.97;82.12;100580.53;4951090;28;20218;-56
2022/04/14 08:46:36;;;;;;;16.87;14.47;;;;;;;21.23;81.35;100583.69;4952038;28;20563;-56
2022/04/14 08:49:02;;;;;;;19.57;16.20;;;;;;;20.97;80.62;100584.00;4942841;28;20282;-55
2022/04/14 08:51:30;;;;;;;15.97;14.27;;;;;;;20.99;81.38;100574.25;4950139;28;20197;-55
2022/04/14 08:53:56;;;;;;;17.10;15.30;;;;;;;20.89;82.19;100578.28;4944214;28;20197;-55
2022/04/14 08:56:23;;;;;;;13.60;12.20;;;;;;;21.17;81.43;100574.31;4942990;28;20675;-54
2022/04/14 08:58:51;;;;;;;15.90;14.20;;;;;;;21.25;80.99;100579.19;4943022;28;20220;-55
2022/04/14 09:01:17;;;;;;;12.40;10.87;;;;;;;21.53;80.74;100575.19;4945494;28;20771;-56
2022/04/14 09:03:42;;;;;;;10.37;9.37;;;;;;;21.83;80.58;100580.72;4939265;28;20233;-56
2022/04/14 09:06:09;;;;;;;13.87;10.50;;;;;;;22.04;80.00;100573.47;4945566;28;20405;-56
2022/04/14 09:08:34;;;;;;;10.97;9.87;;;;;;;22.28;79.75;100586.28;4947556;28;20186;-55
2022/04/14 09:11:01;;;;;;;14.87;13.47;;;;;;;22.48;79.23;100582.59;4945039;28;20198;-56
2022/04/14 09:13:27;;;;;;;13.70;12.30;;;;;;;22.43;78.54;100578.50;4943782;28;20211;-56
2022/04/14 09:15:52;;;;;;;14.60;13.43;;;;;;;22.44;77.29;100575.81;4942778;28;20249;-55
2022/04/14 09:18:18;;;;;;;13.20;11.80;;;;;;;22.18;78.33;100575.34;4944576;28;20548;-56
2022/04/14 09:20:48;;;;;;;12.57;10.83;;;;;;;22.26;79.05;100577.59;4944891;28;20276;-54
2022/04/14 09:23:26;;;;;;;17.87;16.07;;;;;;;22.38;77.87;100582.22;4939871;28;20314;-57
2022/04/14 09:25:52;;;;;;;16.07;14.37;;;;;;;22.13;78.51;100580.03;4945614;28;20595;-54
2022/04/14 09:28:20;;;;;;;16.47;14.33;;;;;;;22.35;78.21;100576.25;4942025;28;20187;-56
2022/04/14 09:31:15;;;;;;;14.17;12.70;;;;;;;22.58;79.02;100574.19;4947183;28;20209;-55
2022/04/14 09:33:49;;;;;;;15.67;13.07;;;;;;;22.61;78.55;100569.59;4931522;28;20214;-56
2022/04/14 09:36:19;;;;;;;15.07;13.60;;;;;;;22.56;78.08;100578.69;4946890;28;20206;-55
2022/04/14 09:39:14;;;;;;;14.73;13.23;;;;;;;22.48;77.72;100576.47;4951366;28;20218;-55
2022/04/14 09:41:42;;;;;;;16.03;14.37;;;;;;;22.32;78.26;100569.38;4940950;28;20225;-56
2022/04/14 09:44:12;;;;;;;14.53;13.23;;;;;;;22.18;78.93;100566.63;4946516;28;20365;-57
2022/04/14 09:46:47;;;;;;;14.20;13.00;;;;;;;22.00;78.91;100573.72;4942864;28;20198;-57
2022/04/14 09:49:17;;;;;;;16.60;13.60;;;;;;;21.87;79.41;100576.97;4940185;28;22252;-58
2022/04/14 09:51:47;;;;;;;16.10;12.97;;;;;;;21.78;79.61;100580.94;4942884;28;20286;-55
2022/04/14 09:54:15;;;;;;;17.47;15.77;;;;;;;21.20;80.48;100571.53;4944679;28;20340;-56
2022/04/14 09:56:51;;;;;;;15.17;13.60;;;;;;;21.49;80.77;100579.75;4949210;28;20248;-56
2022/04/14 09:59:19;;;;;;;15.30;13.73;;;;;;;21.68;80.61;100582.34;4947872;28;20227;-54
2022/04/14 10:01:46;;;;;;;17.53;14.97;;;;;;;21.62;80.58;100572.13;4947238;28;20214;-55
2022/04/14 10:04:31;;;;;;;15.80;14.10;;;;;;;21.78;81.00;100572.19;4944942;28;20219;-55
2022/04/14 10:07:12;;;;;;;17.87;15.97;;;;;;;21.81;80.13;100573.81;4961122;28;20201;-55
2022/04/14 10:09:40;;;;;;;16.90;15.30;;;;;;;21.67;80.09;100582.44;4945397;28;20298;-57
2022/04/14 10:12:37;;;;;;;17.90;15.90;;;;;;;21.44;81.71;100577.38;4943763;28;20218;-55
2022/04/14 10:15:05;;;;;;;16.70;15.00;;;;;;;21.34;82.75;100578.72;4916785;28;22016;-56
2022/04/14 10:17:33;;;;;;;15.60;14.20;;;;;;;21.37;82.91;100581.22;4944239;28;20194;-56
2022/04/14 10:19:59;;;;;;;17.00;15.23;;;;;;;21.31;82.62;100579.75;4952322;28;20592;-57
2022/04/14 10:22:26;;;;;;;18.33;16.53;;;;;;;21.26;82.51;100583.53;4947157;28;20226;-55
2022/04/14 10:24:56;;;;;;;19.87;18.07;;;;;;;21.22;81.65;100582.84;4952008;28;20308;-55
2022/04/14 10:27:22;;;;;;;19.17;17.20;;;;;;;20.99;82.98;100583.94;4944958;28;20195;-55
2022/04/14 10:29:49;;;;;;;21.57;19.37;;;;;;;21.00;82.80;100583.03;4947172;28;20203;-54
2022/04/14 10:32:14;;;;;;;18.83;16.83;;;;;;;20.84;83.24;100577.63;4945604;28;20281;-55
2022/04/14 10:34:40;;;;;;;19.57;17.67;;;;;;;20.65;84.17;100581.09;4947529;28;20191;-58
2022/04/14 10:37:08;;;;;;;18.60;16.90;;;;;;;20.49;84.65;100583.59;4953528;28;20713;-55
2022/04/14 10:39:43;;;;;;;19.47;17.47;;;;;;;20.41;84.92;100580.47;4947400;28;20257;-56
2022/04/14 10:42:10;;;;;;;19.60;17.73;;;;;;;20.27;85.49;100590.75;4945813;28;20206;-55
2022/04/14 10:44:49;;;;;;;22.07;19.77;;;;;;;20.24;85.35;100589.09;4954275;28;20343;-56
2022/04/14 10:47:35;;;;;;;22.23;20.13;;;;;;;20.22;85.55;100594.44;4946068;28;20655;-56
2022/04/14 10:50:02;;;;;;;19.20;17.33;;;;;;;20.27;85.61;100594.22;4947527;28;20191;-55
2022/04/14 10:52:28;;;;;;;20.00;18.17;;;;;;;20.38;85.52;100597.19;4941888;28;20241;-56
2022/04/14 10:54:57;;;;;;;23.37;21.10;;;;;;;20.48;83.99;100597.66;4945005;28;20964;-56
2022/04/14 10:57:39;;;;;;;23.90;21.40;;;;;;;20.46;83.93;100598.66;4942249;28;20194;-56
2022/04/14 11:00:30;;;;;;;21.30;19.10;;;;;;;20.51;83.90;100594.00;4944782;28;20559;-55
2022/04/14 11:03:11;;;;;;;22.87;20.77;;;;;;;20.36;84.29;100595.56;4942385;28;20232;-56
2022/04/14 11:05:48;;;;;;;22.83;20.70;;;;;;;20.30;85.04;100606.34;4945218;28;20275;-56
2022/04/14 11:08:31;;;;;;;22.60;20.40;;;;;;;20.41;83.76;100601.50;4943366;28;20194;-55
2022/04/14 11:11:12;;;;;;;20.67;18.47;;;;;;;20.44;84.08;100598.69;4948242;28;20208;-55
2022/04/14 11:13:53;;;;;;;22.67;20.53;;;;;;;20.73;83.26;100598.28;4944019;28;20697;-54